Map

Track Data

SID SEASON NUMBER BASIN SUBBASIN NAME ISO_TIME NATURE LAT LON WMO_WIND WMO_PRES WMO_AGENCY TRACK_TYPE DIST2LAND LANDFALL IFLAG USA_AGENCY USA_ATCF_ID USA_LAT USA_LON USA_RECORD USA_STATUS USA_WIND USA_PRES USA_SSHS USA_R34_NE USA_R34_SE USA_R34_SW USA_R34_NW USA_R50_NE USA_R50_SE USA_R50_SW USA_R50_NW USA_R64_NE USA_R64_SE USA_R64_SW USA_R64_NW USA_POCI USA_ROCI USA_RMW USA_EYE TOKYO_LAT TOKYO_LON TOKYO_GRADE TOKYO_WIND TOKYO_PRES TOKYO_R50_DIR TOKYO_R50_LONG TOKYO_R50_SHORT TOKYO_R30_DIR TOKYO_R30_LONG TOKYO_R30_SHORT TOKYO_LAND CMA_LAT CMA_LON CMA_CAT CMA_WIND CMA_PRES HKO_LAT HKO_LON HKO_CAT HKO_WIND HKO_PRES NEWDELHI_LAT NEWDELHI_LON NEWDELHI_GRADE NEWDELHI_WIND NEWDELHI_PRES NEWDELHI_CI NEWDELHI_DP NEWDELHI_POCI REUNION_LAT REUNION_LON REUNION_TYPE REUNION_WIND REUNION_PRES REUNION_TNUM REUNION_CI REUNION_RMW REUNION_R34_NE REUNION_R34_SE REUNION_R34_SW REUNION_R34_NW REUNION_R50_NE REUNION_R50_SE REUNION_R50_SW REUNION_R50_NW REUNION_R64_NE REUNION_R64_SE REUNION_R64_SW REUNION_R64_NW BOM_LAT BOM_LON BOM_TYPE BOM_WIND BOM_PRES BOM_TNUM BOM_CI BOM_RMW BOM_R34_NE BOM_R34_SE BOM_R34_SW BOM_R34_NW BOM_R50_NE BOM_R50_SE BOM_R50_SW BOM_R50_NW BOM_R64_NE BOM_R64_SE BOM_R64_SW BOM_R64_NW BOM_ROCI BOM_POCI BOM_EYE BOM_POS_METHOD BOM_PRES_METHOD NADI_LAT NADI_LON NADI_CAT NADI_WIND NADI_PRES WELLINGTON_LAT WELLINGTON_LON WELLINGTON_WIND WELLINGTON_PRES DS824_LAT DS824_LON DS824_STAGE DS824_WIND DS824_PRES TD9636_LAT TD9636_LON TD9636_STAGE TD9636_WIND TD9636_PRES TD9635_LAT TD9635_LON TD9635_WIND TD9635_PRES TD9635_ROCI NEUMANN_LAT NEUMANN_LON NEUMANN_CLASS NEUMANN_WIND NEUMANN_PRES MLC_LAT MLC_LON MLC_CLASS MLC_WIND MLC_PRES USA_GUST BOM_GUST BOM_GUST_PER REUNION_GUST REUNION_GUST_PER USA_SEAHGT USA_SEARAD_NE USA_SEARAD_SE USA_SEARAD_SW USA_SEARAD_NW STORM_SPEED STORM_DIR
1971242N09135 1971 103 WP MM VIRGINIA 1971-08-30 00:00:00 NR 9.20000 135.000 main 939 912 __________O___ -1 9.20000 135.000 1 15 23 334
1971242N09135 1971 103 WP MM VIRGINIA 1971-08-30 03:00:00 NR 10.2274 134.502 main 912 888 __________P___ -1 10.2274 134.502 1 16 22 335
1971242N09135 1971 103 WP MM VIRGINIA 1971-08-30 06:00:00 NR 11.2138 134.052 main 893 868 __________P___ -1 11.2138 134.052 1 17 21 337
1971242N09135 1971 103 WP MM VIRGINIA 1971-08-30 09:00:00 NR 12.1181 133.700 main 869 859 __________P___ -1 12.1181 133.700 1 18 18 342
1971242N09135 1971 103 WP MM VIRGINIA 1971-08-30 12:00:00 NR 12.9000 133.500 main 864 864 __________O___ -1 12.9000 133.500 1 20 14 352
1971242N09135 1971 103 WP MM VIRGINIA 1971-08-30 15:00:00 NR 13.5322 133.485 main 879 879 __________P___ -1 13.5322 133.485 1 18 12 6
1971242N09135 1971 103 WP MM VIRGINIA 1971-08-30 18:00:00 NR 14.0368 133.618 main 900 900 __________P___ -1 14.0368 133.618 1 17 10 21
1971242N09135 1971 103 WP MM VIRGINIA 1971-08-30 21:00:00 NR 14.4481 133.842 main 931 931 __________P___ -1 14.4481 133.842 1 16 9 31
1971242N09135 1971 103 WP MM VIRGINIA 1971-08-31 00:00:00 NR 14.8000 134.100 main 974 974 __________O___ -1 14.8000 134.100 1 15 9 30
1971242N09135 1971 103 WP MM VIRGINIA 1971-08-31 03:00:00 NR 15.2031 134.299 main 1008 1008 __________P___ -1 15.2031 134.299 1 16 9 28
1971242N09135 1971 103 WP MM VIRGINIA 1971-08-31 06:00:00 NR 15.5499 134.520 main 1039 1039 __________P___ -1 15.5499 134.520 1 17 8 35
1971242N09135 1971 103 WP MM VIRGINIA 1971-08-31 09:00:00 NR 15.8218 134.755 main 1081 1081 __________P___ -1 15.8218 134.755 1 18 6 46
1971242N09135 1971 103 WP MM VIRGINIA 1971-08-31 12:00:00 NR 16.0000 135.000 main 1109 1109 __________O___ -1 16.0000 135.000 1 20 5 70
1971242N09135 1971 103 WP MM VIRGINIA 1971-08-31 15:00:00 NR 15.9787 135.212 main 1129 1129 __________P___ -1 15.9787 135.212 1 21 4 106
1971242N09135 1971 103 WP MM VIRGINIA 1971-08-31 18:00:00 NR 15.8819 135.435 main 1145 1145 __________P___ -1 15.8819 135.435 1 22 5 109
1971242N09135 1971 103 WP MM VIRGINIA 1971-08-31 21:00:00 NR 15.8192 135.691 main 1172 1172 __________P___ -1 15.8192 135.691 1 23 10 65
1971242N09135 1971 103 WP MM VIRGINIA 1971-09-01 00:00:00 TS 16.3200 136.400 1010 tokyo main 1261 1261 _O________O___ -1 18.0000 138.000 2 1010 0 0 0 15.9000 136.000 1 25 17 49
1971242N09135 1971 103 WP MM VIRGINIA 1971-09-01 03:00:00 TS 16.9216 137.014 main 1344 1344 _P________P___ -1 18.1076 138.172 2 1009 0 0 16.3286 136.434 1 26 16 43
1971242N09135 1971 103 WP MM VIRGINIA 1971-09-01 06:00:00 TS 17.4564 137.511 1008 tokyo main 1419 1419 _O________P___ -1 18.2000 138.300 2 1008 0 0 0 16.8987 136.919 1 27 13 41
1971242N09135 1971 103 WP MM VIRGINIA 1971-09-01 09:00:00 TS 17.8796 137.876 main 1476 1476 _P________P___ -1 18.2650 138.358 2 1008 0 0 17.4943 137.394 1 28 8 36
1971242N09135 1971 103 WP MM VIRGINIA 1971-09-01 12:00:00 TS 18.1333 138.033 1008 tokyo main 1495 1495 _OO_______O___ -1 18.3000 138.400 2 1008 0 0 0 18.0000 137.500 0 19 1010 18.0000 137.800 1 30 5 44
1971242N09135 1971 103 WP MM VIRGINIA 1971-09-01 15:00:00 TS 18.2143 138.209 main 1518 1518 _PP_______P___ -1 18.2925 138.500 2 1006 0 0 18.0127 137.870 0 24 1008 18.2369 138.088 1 33 4 67
1971242N09135 1971 103 WP MM VIRGINIA 1971-09-01 18:00:00 TS 18.2725 138.380 1004 tokyo main 1542 1542 _OO_______P___ -1 18.3000 138.600 2 1004 0 0 0 18.1000 138.200 1 29 1007 18.3743 138.294 1 37 3 61
1971242N09135 1971 103 WP MM VIRGINIA 1971-09-01 21:00:00 TS 18.3757 138.520 main 1557 1557 _PP_______P___ -1 18.3400 138.680 2 1003 0 0 18.3124 138.452 1 33 1004 18.4746 138.428 1 41 3 33
1971242N09135 1971 103 WP MM VIRGINIA 1971-09-02 00:00:00 TS 18.5625 138.575 1002 tokyo main 1576 1576 OOOO_____OOO__ jtwc_wp WP241971 18.6000 138.500 45 0 18.5000 138.700 9 1002 0 0 0 18.6000 138.600 2 38 1002 18.4000 138.500 TS 40 1002 18.6000 138.500 TC 45 18.6000 138.500 2 45 18.6000 138.500 45 1001 120 5 5
1971242N09135 1971 103 WP MM VIRGINIA 1971-09-02 03:00:00 TS 18.8533 138.559 main 1567 1542 PPPP_____PPP__ WP241971 18.8375 138.510 42 0 18.8850 138.615 9 1001 0 0 18.8999 138.653 2 38 1000 18.7400 138.450 TS 37 1003 18.8375 138.510 TC 42 18.8552 138.537 2 42 18.8375 138.510 42 1000 120 6 353
1971242N09135 1971 103 WP MM VIRGINIA 1971-09-02 06:00:00 TS 19.1571 138.507 1000 tokyo main 1533 1508 OOOO_____OPO__ jtwc_wp WP241971 19.1000 138.500 40 0 19.3000 138.500 9 1000 0 0 0 19.2000 138.600 2 38 998 19.1000 138.400 TS 35 1004 19.1000 138.500 TC 40 19.1424 138.518 2 40 19.1000 138.500 40 1000 120 6 349
1971242N09135 1971 103 WP MM VIRGINIA 1971-09-02 09:00:00 TS 19.4494 138.431 main 1508 1479 PPPP_____PPP__ WP241971 19.4000 138.458 37 0 19.5300 138.435 9 1000 0 0 19.5025 138.398 2 38 998 19.4800 138.350 TS 32 1005 19.4000 138.458 TC 37 19.4334 138.465 2 37 19.4000 138.458 37 999 120 6 348
1971242N09135 1971 103 WP MM VIRGINIA 1971-09-02 12:00:00 TS 19.7143 138.371 1000 tokyo main 1479 1459 OOOO_____OOO__ jtwc_wp WP241971 19.7000 138.400 35 0 19.7000 138.400 9 1000 0 0 0 19.7000 138.300 2 38 998 19.8000 138.300 TD 30 1007 19.7000 138.400 TC 35 19.7000 138.400 2 35 19.7000 138.400 35 998 120 5 355
1971242N09135 1971 103 WP MM VIRGINIA 1971-09-02 15:00:00 TS 19.9289 138.387 main 1459 1440 PPPP_____PPP__ WP241971 19.9800 138.350 37 0 19.9150 138.400 9 1000 0 0 19.7479 138.650 2 38 998 19.9875 138.250 TD 32 1004 19.9800 138.350 TC 37 19.9119 138.361 2 38 19.9800 138.350 37 996 120 4 6
1971242N09135 1971 103 WP MM VIRGINIA 1971-09-02 18:00:00 TS 20.0707 138.402 1000 tokyo main 1440 1440 OOOO_____OPO__ jtwc_wp WP241971 20.2000 138.300 40 0 20.1000 138.400 9 1000 0 0 0 19.6000 139.000 2 38 998 20.1000 138.200 TS 35 1002 20.2000 138.300 TC 40 20.0950 138.315 2 42 20.2000 138.300 40 995 120 2 351
1971242N09135 1971 103 WP MM VIRGINIA 1971-09-02 21:00:00 TS 20.1079 138.348 main 1435 1435 PPPP_____PPP__ WP241971 20.3225 138.242 45 0 20.2075 138.350 9 1000 0 0 19.1249 138.947 2 43 996 20.2000 138.150 TS 37 999 20.3225 138.242 TC 45 20.2556 138.261 2 46 20.3225 138.242 45 994 150 1 300
1971242N09135 1971 103 WP MM VIRGINIA 1971-09-03 00:00:00 TS 20.1429 138.271 1000 tokyo main 1435 1410 OOOO_____OOO__ jtwc_wp WP241971 20.4000 138.200 50 0 20.3000 138.300 9 1000 0 0 0 18.8000 138.700 3 48 995 20.3000 138.100 TS 40 997 20.4000 138.200 TC 50 20.4000 138.200 2 50 20.4000 138.200 50 993 180 2 327
1971242N09135 1971 103 WP MM VIRGINIA 1971-09-03 03:00:00 TS 20.2826 138.222 main 1410 1391 PPPP_____PPP__ WP241971 20.4925 138.215 55 0 20.4350 138.315 9 998 0 0 19.1002 138.386 3 53 994 20.4425 138.065 TS 42 994 20.4925 138.215 TC 55 20.5231 138.144 2 52 20.4925 138.215 55 992 180 4 342
1971242N09135 1971 103 WP MM VIRGINIA 1971-09-03 06:00:00 TS 20.4764 138.154 996 tokyo main 1391 1361 OOOO_____OPO__ jtwc_wp WP241971 20.6000 138.200 60 0 20.6000 138.300 9 996 0 0 0 19.7000 138.100 3 58 993 20.6000 138.000 TS 45 992 20.6000 138.200 TC 60 20.6349 138.080 2 55 20.6000 138.200 60 992 180 4 337
1971242N09135 1971 103 WP MM VIRGINIA 1971-09-03 09:00:00 TS 20.6935 138.038 main 1361 1337 PPPP_____PPP__ WP241971 20.7350 138.065 60 0 20.8000 138.188 9 995 0 0 20.3374 138.035 3 58 993 20.7575 137.850 TS 45 993 20.7350 138.065 TC 60 20.7543 138.000 2 57 20.7350 138.065 60 993 180 5 332
1971242N09135 1971 103 WP MM VIRGINIA 1971-09-03 12:00:00 TS 20.9143 137.900 994 tokyo main 1337 1312 OOOO_____OOO__ jtwc_wp WP241971 20.9000 137.900 60 0 21.0000 138.000 9 994 0 0 0 20.9000 138.000 3 58 993 20.9000 137.700 TS 45 994 20.9000 137.900 TC 60 20.9000 137.900 2 60 20.9000 137.900 60 994 180 5 328
1971242N09135 1971 103 WP MM VIRGINIA 1971-09-03 15:00:00 TS 21.0875 137.770 main 1312 1282 PPPP_____PPP__ WP241971 21.0849 137.807 60 0 21.1426 137.735 9 993 0 0 21.1525 137.815 3 58 993 20.9699 137.657 TS 45 994 21.0849 137.807 TC 60 21.0923 137.764 2 60 21.0849 137.807 60 993 180 4 325
1971242N09135 1971 103 WP MM VIRGINIA 1971-09-03 18:00:00 TS 21.2732 137.630 992 tokyo main 1282 1258 OOOO_____OPO__ jtwc_wp WP241971 21.3000 137.700 60 0 21.3000 137.500 9 992 0 0 0 21.3000 137.600 3 58 993 21.1000 137.600 TS 45 994 21.3000 137.700 TC 60 21.3126 137.608 2 60 21.3000 137.700 60 993 180 5 327
1971242N09135 1971 103 WP MM VIRGINIA 1971-09-03 21:00:00 TS 21.5285 137.460 main 1258 1218 PPPP_____PPP__ WP241971 21.5426 137.500 60 0 21.5349 137.427 9 992 0 0 21.5575 137.435 3 58 993 21.4276 137.408 TS 47 993 21.5426 137.500 TC 60 21.5516 137.448 2 60 21.5426 137.500 60 992 180 6 330
1971242N09135 1971 103 WP MM VIRGINIA 1971-09-04 00:00:00 TS 21.8000 137.300 992 tokyo main 1218 1194 OOOO_____OOO__ jtwc_wp WP241971 21.8000 137.300 60 0 21.8000 137.400 9 992 0 0 0 21.8000 137.300 3 58 993 21.8000 137.200 STS 50 992 21.8000 137.300 TC 60 21.8000 137.300 2 60 21.8000 137.300 60 992 180 6 333
1971242N09135 1971 103 WP MM VIRGINIA 1971-09-04 03:00:00 TS 22.0351 137.188 main 1194 1160 PPPP_____PPP__ WP241971 22.0500 137.185 62 0 22.0575 137.308 9 988 0 0 21.9500 137.185 3 63 986 22.0575 137.085 STS 52 989 22.0500 137.185 TC 62 22.0306 137.185 2 63 22.0500 137.185 62 989 180 5 339
1971242N09135 1971 103 WP MM VIRGINIA 1971-09-04 06:00:00 TS 22.2671 137.098 985 tokyo main 1160 1135 OOOO_____OPO__ jtwc_wp WP241971 22.3000 137.100 65 1 22.3000 137.200 9 985 0 0 0 22.1000 137.100 4 68 980 22.3000 137.000 STS 55 986 22.3000 137.100 TC 65 22.2699 137.085 2 67 22.3000 137.100 65 986 180 5 341
1971242N09135 1971 103 WP MM VIRGINIA 1971-09-04 09:00:00 TS 22.5070 137.008 main 1135 1102 PPPP_____PPP__ WP241971 22.5425 137.000 70 1 22.4775 137.115 9 980 0 0 22.3200 137.050 4 72 972 22.6000 136.900 STS 55 983 22.5425 137.000 TC 70 22.5243 136.992 2 71 22.5425 137.000 70 982 180 5 342
1971242N09135 1971 103 WP MM VIRGINIA 1971-09-04 12:00:00 TS 22.7714 136.914 975 tokyo main 1102 1068 OOOO_____OOO__ jtwc_wp WP241971 22.8000 136.900 75 1 22.7000 137.000 9 975 0 0 0 22.6000 137.000 4 77 965 22.9000 136.800 STS 55 980 22.8000 136.900 TC 75 22.8000 136.900 3 75 22.8000 136.900 75 978 180 6 341
1971242N09135 1971 103 WP MM VIRGINIA 1971-09-04 15:00:00 TS 23.0721 136.801 main 1068 1034 PPPP_____PPP__ WP241971 23.0850 136.800 82 1 23.0926 136.793 9 972 0 0 22.9275 136.915 4 82 962 23.1425 136.707 STS 57 975 23.0850 136.800 TC 82 23.0872 136.792 3 81 23.0850 136.800 82 973 180 7 341
1971242N09135 1971 103 WP MM VIRGINIA 1971-09-04 18:00:00 TS 23.3996 136.684 970 tokyo main 1034 1000 OOOO_____OPO__ jtwc_wp WP241971 23.4000 136.700 90 2 23.5000 136.600 9 970 0 0 0 23.3000 136.800 5 87 960 23.4000 136.600 STS 60 970 23.4000 136.700 TC 90 23.3975 136.685 3 87 23.4000 136.700 90 969 180 7 342
1971242N09135 1971 103 WP MM VIRGINIA 1971-09-04 21:00:00 TS 23.7234 136.569 main 1000 956 PPPP_____PPP__ WP241971 23.7350 136.593 95 2 23.7200 136.520 9 965 0 0 23.6775 136.643 5 92 957 23.7275 136.458 STS 60 965 23.7350 136.593 TC 95 23.7341 136.586 3 93 23.7350 136.593 95 964 180 7 344
1971242N09135 1971 103 WP MM VIRGINIA 1971-09-05 00:00:00 TS 24.0857 136.471 960 tokyo main 956 913 OOOO_____OOO__ jtwc_wp WP241971 24.1000 136.500 100 3 24.0000 136.500 9 960 0 0 0 24.1000 136.500 5 97 954 24.1000 136.300 STS 60 960 24.1000 136.500 TC 100 24.1000 136.500 4 100 24.1000 136.500 100 960 180 8 349
1971242N09135 1971 103 WP MM VIRGINIA 1971-09-05 03:00:00 TS 24.5140 136.400 main 913 875 PPPP_____PPP__ WP241971 24.4850 136.442 97 3 24.5775 136.492 9 957 0 0 24.5850 136.427 5 92 957 24.4925 136.128 STS 65 960 24.4850 136.442 TC 97 24.4881 136.427 4 97 24.4850 136.442 97 959 180 9 353
1971242N09135 1971 103 WP MM VIRGINIA 1971-09-05 06:00:00 TS 24.9721 136.353 955 tokyo main 865 823 OOOO_____OPO__ jtwc_wp WP241971 24.9000 136.400 95 2 25.2000 136.500 9 955 0 0 0 25.1000 136.400 5 87 960 24.9000 136.000 T 70 960 24.9000 136.400 TC 95 24.9050 136.370 4 95 24.9000 136.400 95 958 180 9 356
1971242N09135 1971 103 WP MM VIRGINIA 1971-09-05 09:00:00 TS 25.4070 136.323 main 823 786 PPPP_____PPP__ WP241971 25.3350 136.350 92 2 25.6150 136.515 9 957 0 0 25.6000 136.400 5 87 965 25.2850 135.970 T 70 965 25.3350 136.350 TC 92 25.3444 136.328 4 92 25.3350 136.350 92 963 180 9 358
1971242N09135 1971 103 WP MM VIRGINIA 1971-09-05 12:00:00 TS 25.8571 136.300 960 tokyo main 777 742 OOOO_____OOO__ jtwc_wp WP241971 25.8000 136.300 90 2 26.0000 136.500 9 960 0 0 0 26.1000 136.400 5 87 970 25.7000 136.000 T 70 970 25.8000 136.300 TC 90 25.8000 136.300 4 90 25.8000 136.300 90 969 180 10 356
1971242N09135 1971 103 WP MM VIRGINIA 1971-09-05 15:00:00 TS 26.3577 136.250 main 733 693 PPPP_____PPP__ WP241971 26.3000 136.235 87 2 26.5075 136.385 9 960 0 0 26.6225 136.358 5 82 970 26.1850 136.042 T 70 970 26.3000 136.235 TC 87 26.2890 136.262 4 87 26.3000 136.235 87 970 180 10 356
1971242N09135 1971 103 WP MM VIRGINIA 1971-09-05 18:00:00 TS 26.8553 136.220 960 tokyo main 684 651 OOOO_____OPO__ jtwc_wp WP241971 26.8000 136.200 85 2 27.0000 136.300 9 960 0 0 0 27.1000 136.300 4 77 970 26.7000 136.100 T 70 970 26.8000 136.200 TC 85 26.7874 136.241 4 85 26.8000 136.200 85 972 180 10 0
1971242N09135 1971 103 WP MM VIRGINIA 1971-09-05 21:00:00 TS 27.3149 136.235 main 651 628 PPPP_____PPP__ WP241971 27.2800 136.220 82 1 27.3800 136.377 9 962 0 0 27.4875 136.213 4 77 967 27.2300 136.143 T 67 967 27.2800 136.220 TC 82 27.2671 136.249 4 82 27.2800 136.220 82 968 180 9 4
1971242N09135 1971 103 WP MM VIRGINIA 1971-09-06 00:00:00 TS 27.7143 136.300 965 tokyo main 628 605 OOOO_____OOO__ jtwc_wp WP241971 27.7000 136.300 80 1 27.7000 136.500 9 965 0 0 0 27.8000 136.200 4 77 964 27.7000 136.200 T 65 965 27.7000 136.300 TC 80 27.7000 136.300 4 80 27.7000 136.300 80 964 180 7 13
1971242N09135 1971 103 WP MM VIRGINIA 1971-09-06 03:00:00 TS 28.0235 136.412 main 605 572 PPPP_____PPP__ WP241971 28.0225 136.435 80 1 28.0074 136.535 9 965 0 0 28.0576 136.362 4 77 964 28.0225 136.285 T 65 965 28.0225 136.435 TC 80 28.0097 136.399 4 80 28.0225 136.435 80 964 150 6 22
1971242N09135 1971 103 WP MM VIRGINIA 1971-09-06 06:00:00 TS 28.2968 136.563 965 tokyo main 574 542 OOOO_____OPO__ jtwc_wp WP241971 28.3000 136.600 80 1 28.3000 136.600 9 965 0 0 0 28.3000 136.600 4 77 964 28.3000 136.400 T 65 965 28.3000 136.600 TC 80 28.2775 136.541 4 80 28.3000 136.600 80 965 120 6 27
1971242N09135 1971 103 WP MM VIRGINIA 1971-09-06 09:00:00 TS 28.5742 136.729 main 542 512 PPPP_____PPP__ WP241971 28.5700 136.750 80 1 28.5626 136.785 9 965 0 0 28.5625 136.815 4 77 964 28.6275 136.543 T 65 965 28.5700 136.750 TC 80 28.5566 136.712 4 80 28.5700 136.750 80 965 120 7 26
1971242N09135 1971 103 WP MM VIRGINIA 1971-09-06 12:00:00 TS 28.9143 136.900 965 tokyo main 512 471 OOOO_____OOO__ jtwc_wp WP241971 28.9000 136.900 80 1 28.9000 137.000 9 965 0 0 0 28.9000 137.000 4 77 964 29.0000 136.700 T 65 965 28.9000 136.900 TC 80 28.9000 136.900 4 80 28.9000 136.900 80 965 120 8 19
1971242N09135 1971 103 WP MM VIRGINIA 1971-09-06 15:00:00 TS 29.3706 137.035 main 460 412 PPPP_____PPP__ WP241971 29.3549 137.035 77 1 29.4050 137.158 9 970 0 0 29.3474 137.093 4 72 967 29.4199 136.835 T 65 970 29.3549 137.035 TC 77 29.3574 137.051 4 77 29.3549 137.035 77 969 120 10 14
1971242N09135 1971 103 WP MM VIRGINIA 1971-09-06 18:00:00 TS 29.9124 137.189 975 tokyo main 412 356 OOOO_____OPO__ jtwc_wp WP241971 29.9000 137.200 75 1 30.0000 137.300 9 975 0 0 0 29.9000 137.200 4 68 970 29.9000 137.000 T 65 975 29.9000 137.200 TC 75 29.8868 137.221 4 75 29.9000 137.200 75 973 120 12 15
1971242N09135 1971 103 WP MM VIRGINIA 1971-09-06 21:00:00 TS 30.4835 137.387 main 356 307 PPPP_____PPP__ WP241971 30.4774 137.420 72 1 30.5847 137.406 9 977 0 0 30.5199 137.405 4 68 973 30.3748 137.206 T 65 975 30.4774 137.420 TC 72 30.4728 137.430 4 72 30.4774 137.420 72 976 120 13 19
1971242N09135 1971 103 WP MM VIRGINIA 1971-09-07 00:00:00 TS 31.1143 137.657 980 tokyo main 312 272 OOOO_____OOO__ jtwc_wp WP241971 31.1000 137.700 70 1 31.2000 137.600 9 980 0 0 0 31.2000 137.700 4 68 976 31.0000 137.500 T 65 975 31.1000 137.700 TC 70 31.1000 137.700 4 70 31.1000 137.700 70 979 120 14 22
1971242N09135 1971 103 WP MM VIRGINIA 1971-09-07 03:00:00 TS 31.7986 138.001 main 272 234 PPPP_____PPP__ WP241971 31.7348 138.013 70 1 31.8503 138.012 9 980 0 0 31.8848 138.056 4 63 976 31.9501 137.919 T 62 975 31.7348 138.013 TC 70 31.7006 137.981 4 70 31.7348 138.013 70 977 120 15 25
1971242N09135 1971 103 WP MM VIRGINIA 1971-09-07 06:00:00 TS 32.5028 138.423 980 tokyo main 234 167 OOOO_____OPO__ jtwc_wp WP241971 32.4000 138.400 70 1 32.5000 138.500 9 980 0 0 0 32.6000 138.500 3 58 976 32.9000 138.400 STS 60 975 32.4000 138.400 TC 70 32.3415 138.336 4 70 32.4000 138.400 70 976 120 16 28
1971242N09135 1971 103 WP MM VIRGINIA 1971-09-07 09:00:00 TS 33.1693 138.866 main 156 100 PPPP_____PPP__ WP241971 33.0930 138.873 70 1 33.0535 138.822 9 980 0 0 33.3415 138.969 3 58 976 33.5501 138.861 STS 60 977 33.0930 138.873 TC 70 33.0368 138.797 4 70 33.0930 138.873 70 977 120 16 32
1971242N09135 1971 103 WP MM VIRGINIA 1971-09-07 12:00:00 TS 33.8625 139.419 980 tokyo main 95 35 OOOO_____OOO__ jtwc_wp WP241971 33.8000 139.400 70 1 33.7000 139.300 9 980 0 0 0 34.1000 139.600 3 58 976 34.0000 139.300 STS 60 980 33.8000 139.400 TC 70 33.8000 139.400 4 70 33.8000 139.400 70 978 120 19 37
1971242N09135 1971 103 WP MM VIRGINIA 1971-09-07 15:00:00 TS 34.7029 140.269 main 42 28 _PP_______P___ WP241971 -1 34.5980 140.187 9 977 0 0 34.8420 140.454 3 58 978 STS TC 34.6687 140.167 4 61 23 42
1971242N09135 1971 103 WP MM VIRGINIA 1971-09-07 18:00:00 TS 35.5978 141.295 975 tokyo main 37 37 _OO_______P___ -1 35.6000 141.300 9 975 0 0 0 35.6000 141.500 3 58 980 35.5934 141.085 4 52 25 44
1971242N09135 1971 103 WP MM VIRGINIA 1971-09-07 21:00:00 TS 36.4817 142.373 main 136 136 _PP_______P___ -1 36.5407 142.387 9 975 0 0 36.3835 142.621 3 53 980 36.5210 142.112 4 43 25 46
1971242N09135 1971 103 WP MM VIRGINIA 1971-09-08 00:00:00 ET 37.3667 143.567 975 tokyo main 209 209 _OO_______O___ -1 37.5000 143.600 9 975 0 0 0 37.2000 143.900 9 48 980 37.4000 143.200 2 35 27 48
1971242N09135 1971 103 WP MM VIRGINIA 1971-09-08 03:00:00 ET 38.2516 144.872 main 276 276 _PP_______P___ -1 38.5056 144.963 9 975 0 0 38.0570 145.348 9 43 980 38.1924 144.306 2 28 51
1971242N09135 1971 103 WP MM VIRGINIA 1971-09-08 06:00:00 ET 39.1205 146.352 975 tokyo main 371 370 _OO_______P___ -1 39.5000 146.500 9 975 0 0 0 38.9000 146.900 9 38 980 38.9087 145.423 2 29 55
1971242N09135 1971 103 WP MM VIRGINIA 1971-09-08 09:00:00 ET 39.9171 147.949 main 417 410 _PP_______P___ -1 40.4218 148.208 9 977 0 0 39.5856 148.388 9 980 39.5708 146.553 2 31 58
1971242N09135 1971 103 WP MM VIRGINIA 1971-09-08 12:00:00 ET 40.7778 149.744 980 tokyo main 436 436 _OO_______O___ -1 41.3000 150.000 9 980 0 0 0 40.4000 150.000 9 980 40.2000 147.700 1 35 56
1971242N09135 1971 103 WP MM VIRGINIA 1971-09-08 15:00:00 ET 41.8755 151.828 main 444 425 _PP___________ -1 42.1438 151.684 9 980 0 0 41.6072 151.971 9 982 1 37 54
1971242N09135 1971 103 WP MM VIRGINIA 1971-09-08 18:00:00 ET 42.9500 153.750 980 tokyo main 432 432 _OO___________ -1 43.0000 153.500 9 980 0 0 0 42.9000 154.000 9 985 1 36 55
1971242N09135 1971 103 WP MM VIRGINIA 1971-09-08 21:00:00 ET 43.9311 155.820 main 488 488 _PP___________ -1 43.8915 155.807 9 986 0 0 43.9707 155.834 9 988 1 34 56
1971242N09135 1971 103 WP MM VIRGINIA 1971-09-09 00:00:00 ET 44.9000 157.700 992 tokyo main 581 527 _OO___________ -1 44.8000 158.000 6 992 0 0 0 45.0000 157.400 9 992 31 49
1971242N09135 1971 103 WP MM VIRGINIA 1971-09-09 03:00:00 ET 45.9563 159.061 main 521 478 _PP___________ -1 45.7806 159.520 6 994 0 0 46.1321 158.603 9 992 27 40
1971242N09135 1971 103 WP MM VIRGINIA 1971-09-09 06:00:00 ET 46.9500 160.200 996 tokyo main 474 462 _OO___________ -1 46.7000 160.700 6 996 0 0 0 47.2000 159.700 9 992 24 39
1971242N09135 1971 103 WP MM VIRGINIA 1971-09-09 09:00:00 ET 47.7947 161.259 main 473 471 _PP___________ -1 47.4817 161.681 6 999 0 0 48.1078 160.837 9 993 22 50
1971242N09135 1971 103 WP MM VIRGINIA 1971-09-09 12:00:00 ET 48.4000 162.750 1002 tokyo main 497 497 _OO___________ -1 48.0000 163.000 6 1002 0 0 0 48.8000 162.500 9 995 28 72
1971242N09135 1971 103 WP MM VIRGINIA 1971-09-09 15:00:00 ET 48.6618 165.274 main 607 607 _PP___________ -1 48.1000 165.270 6 1002 0 0 49.2237 165.279 9 995 36 87
1971242N09135 1971 103 WP MM VIRGINIA 1971-09-09 18:00:00 ET 48.6000 168.171 1002 tokyo main 753 753 _OO___________ -1 48.0000 168.000 6 1002 0 0 0 49.4000 168.400 9 995 37 93
1971242N09135 1971 103 WP MM VIRGINIA 1971-09-09 21:00:00 ET 48.4869 170.819 main 904 904 _PP___________ -1 47.9933 170.676 6 1003 0 0 49.4740 171.106 9 997 35 94
1971242N09135 1971 103 WP MM VIRGINIA 1971-09-10 00:00:00 ET 48.3750 173.500 1004 tokyo main 1048 1048 _OO___________ -1 48.0000 173.500 6 1004 0 0 0 49.5000 173.500 9 1000 38 97
1971242N09135 1971 103 WP MM VIRGINIA 1971-09-10 03:00:00 ET 48.0167 176.461 main 1160 991 _P____________ -1 48.0167 176.461 6 1004 0 0 9 40 95
1971242N09135 1971 103 WP MM VIRGINIA 1971-09-10 06:00:00 ET 48.0000 179.500 1004 tokyo main 979 _O____________ -1 48.0000 179.500 6 1004 0 0 0 41 90

Digital Typhoon Data and Search

About IBTrACS Database

This database is a web-friendly format of International Best Track Archive for Climate Stewardship (IBTrACS), a global best track data archive curated by NOAA dating back to 1842.

Updated: 2021-12-03